Sainte-Marguerite, Canada
Current Conditions -  °F | °C
As of 12:00 PM on Saturday 20 Dec 2014 (Local Time) from CYMX Reporting Station
Few Clouds Few Clouds  
Wind Chill:   Ceiling: Unl
Heat Index: 18°   Visibility: 25mi
Dew Point: 10°   Wind: 6mph
Humidity: 73%   Direction: 40°NE
Pressure: 30.34"   Gusts: NA
Location:  46.03°N, 74.07°W
Report Text: CYMX 201700Z 04005KT 010V080 25SM FEW009 FEW150 M08/M12 A3034 RMK SF1AC1 SF TR AC TR SLP282
Loading
Personal Weather Stations






























Interactive Weather Map New forecast layout! Learn more

10-Day Weather Forecast

Advertisements
Track Severe Weather on mobile